Time;durP1;ratioP1;P1;durP2;ratioP2;P2;SDS_P1;SDS_P2;PMS_P1;PMS_P2;Temp;Humidity;BMP_temperature;BMP_pressure;BME280_temperature;BME280_humidity;BME280_pressure;Samples;Min_cycle;Max_cycle;Signal;HPM_P1;HPM_P2
2022/12/18 00:00:54;;;;;;;18.63;14.17;;;;;;;;;;5047576;28;20962;-81
2022/12/18 00:03:57;;;;;;;17.97;14.90;;;;;;;;;;5039819;28;20475;-79
2022/12/18 00:09:59;;;;;;;18.70;15.27;;;;;;;;;;5043753;28;20450;-81
2022/12/18 00:13:01;;;;;;;18.07;14.00;;;;;;;;;;5043177;28;20473;-82
2022/12/18 00:16:15;;;;;;;20.07;14.23;;;;;;;;;;5060725;28;20474;-81
2022/12/18 00:19:23;;;;;;;21.07;14.50;;;;;;;;;;5069134;28;20458;-81
2022/12/18 00:22:24;;;;;;;18.20;14.33;;;;;;;;;;5006481;28;20476;-81
2022/12/18 00:25:28;;;;;;;18.77;15.80;;;;;;;;;;5000837;28;20470;-81
2022/12/18 00:28:31;;;;;;;22.00;14.50;;;;;;;;;;4995260;28;20453;-81
2022/12/18 00:31:29;;;;;;;20.40;15.20;;;;;;;;;;4984524;28;20454;-80
2022/12/18 00:34:26;;;;;;;19.50;15.07;;;;;;;;;;4986951;28;20480;-80
2022/12/18 00:37:27;;;;;;;18.47;14.20;;;;;;;;;;4987320;28;21257;-80
2022/12/18 00:43:54;;;;;;;21.80;15.70;;;;;;;;;;4948401;28;20490;-80
2022/12/18 00:46:51;;;;;;;17.30;14.47;;;;;;;;;;4967407;28;21060;-80
2022/12/18 00:49:50;;;;;;;21.03;14.80;;;;;;;;;;5000412;28;20471;-79
2022/12/18 00:52:40;;;;;;;21.77;15.27;;;;;;;;;;4996712;28;20473;-79
2022/12/18 00:55:31;;;;;;;17.87;13.97;;;;;;;;;;5003454;28;20457;-79
2022/12/18 00:58:31;;;;;;;20.20;13.97;;;;;;;;;;4998687;28;21034;-78
2022/12/18 01:01:26;;;;;;;18.90;14.97;;;;;;;;;;5013030;28;20458;-79
2022/12/18 01:04:25;;;;;;;19.40;14.80;;;;;;;;;;5035176;28;20505;-78
2022/12/18 01:07:26;;;;;;;17.63;13.30;;;;;;;;;;5037003;28;20454;-80
2022/12/18 01:10:31;;;;;;;20.33;14.10;;;;;;;;;;5041183;28;20451;-80
2022/12/18 01:13:38;;;;;;;15.37;13.13;;;;;;;;;;5040987;28;20501;-81
2022/12/18 01:16:53;;;;;;;16.63;13.30;;;;;;;;;;5042202;28;20987;-80
2022/12/18 01:19:48;;;;;;;20.47;14.80;;;;;;;;;;5042359;28;20439;-80
2022/12/18 01:22:36;;;;;;;18.57;13.40;;;;;;;;;;5047705;28;20474;-78
2022/12/18 01:25:29;;;;;;;17.37;13.23;;;;;;;;;;5060254;28;20482;-80
2022/12/18 01:28:25;;;;;;;18.80;13.23;;;;;;;;;;5065939;28;20454;-81
2022/12/18 01:31:23;;;;;;;17.87;13.23;;;;;;;;;;5070539;28;20462;-81
2022/12/18 01:34:14;;;;;;;20.07;13.80;;;;;;;;;;5070333;28;20545;-82
2022/12/18 01:37:08;;;;;;;20.40;13.10;;;;;;;;;;5054339;28;20555;-80
2022/12/18 01:40:19;;;;;;;19.80;13.90;;;;;;;;;;5046180;28;20475;-80
2022/12/18 01:43:13;;;;;;;19.20;13.90;;;;;;;;;;5045919;28;20850;-80
2022/12/18 01:46:05;;;;;;;22.00;13.77;;;;;;;;;;4979107;28;20622;-80
2022/12/18 01:48:58;;;;;;;17.57;12.67;;;;;;;;;;4983596;28;20467;-81
2022/12/18 01:51:54;;;;;;;18.20;13.43;;;;;;;;;;4986244;28;20560;-80
2022/12/18 01:55:13;;;;;;;17.57;12.37;;;;;;;;;;4989128;28;20488;-80
2022/12/18 02:01:37;;;;;;;14.10;12.23;;;;;;;;;;4987444;28;20446;-81
2022/12/18 02:04:38;;;;;;;18.10;13.70;;;;;;;;;;5025744;28;20470;-80
2022/12/18 02:08:02;;;;;;;16.77;12.87;;;;;;;;;;5058648;28;20452;-81
2022/12/18 02:11:08;;;;;;;17.97;13.80;;;;;;;;;;5061604;28;20448;-80
2022/12/18 02:14:05;;;;;;;15.87;12.30;;;;;;;;;;5049602;28;20482;-80
2022/12/18 02:19:32;;;;;;;15.90;12.70;;;;;;;;;;5024148;28;20996;-75
2022/12/18 02:22:26;;;;;;;15.43;12.57;;;;;;;;;;5025472;28;20474;-75
2022/12/18 02:25:22;;;;;;;19.87;13.53;;;;;;;;;;5015880;28;20538;-73
2022/12/18 02:28:19;;;;;;;17.80;13.00;;;;;;;;;;5014495;28;20481;-73
2022/12/18 02:31:15;;;;;;;17.33;11.87;;;;;;;;;;5037081;28;20436;-72
2022/12/18 02:34:10;;;;;;;19.43;12.90;;;;;;;;;;5042717;28;21419;-75
2022/12/18 02:37:03;;;;;;;16.60;12.30;;;;;;;;;;5031265;28;20468;-75
2022/12/18 02:39:56;;;;;;;18.57;12.33;;;;;;;;;;5018035;28;20465;-76
2022/12/18 02:42:51;;;;;;;17.00;12.63;;;;;;;;;;5018664;28;20475;-76
2022/12/18 02:45:55;;;;;;;14.90;12.80;;;;;;;;;;5025201;28;20486;-76
2022/12/18 02:48:44;;;;;;;17.07;12.93;;;;;;;;;;5021882;28;21038;-75
2022/12/18 02:51:38;;;;;;;15.67;12.30;;;;;;;;;;5027048;28;21438;-76
2022/12/18 02:54:36;;;;;;;13.80;11.20;;;;;;;;;;5016830;28;21053;-75
2022/12/18 02:57:37;;;;;;;16.67;12.40;;;;;;;;;;5018758;28;20466;-76
2022/12/18 03:00:30;;;;;;;16.70;12.67;;;;;;;;;;5021497;28;20456;-76
2022/12/18 03:03:26;;;;;;;16.90;12.53;;;;;;;;;;5017621;28;20494;-76
2022/12/18 03:06:22;;;;;;;17.57;13.10;;;;;;;;;;5020635;28;21773;-75
2022/12/18 03:09:19;;;;;;;16.40;13.07;;;;;;;;;;5020417;28;20985;-76
2022/12/18 03:12:26;;;;;;;17.03;11.37;;;;;;;;;;5023544;28;20961;-76
2022/12/18 03:15:19;;;;;;;15.77;11.47;;;;;;;;;;5022803;28;20465;-77
2022/12/18 03:18:16;;;;;;;15.57;11.97;;;;;;;;;;5020297;28;20486;-77
2022/12/18 03:21:10;;;;;;;19.03;11.93;;;;;;;;;;5028987;28;21085;-76
2022/12/18 03:24:03;;;;;;;16.70;12.60;;;;;;;;;;5042063;28;20489;-76
2022/12/18 03:26:56;;;;;;;14.90;12.47;;;;;;;;;;5049245;28;20473;-76
2022/12/18 03:29:47;;;;;;;15.43;12.77;;;;;;;;;;5052028;28;20449;-73
2022/12/18 03:32:47;;;;;;;13.57;11.67;;;;;;;;;;5046360;28;20975;-76
2022/12/18 03:35:42;;;;;;;15.43;10.90;;;;;;;;;;5040000;28;20492;-76
2022/12/18 03:38:45;;;;;;;15.30;11.80;;;;;;;;;;5042335;28;20485;-76
2022/12/18 03:41:42;;;;;;;14.50;11.90;;;;;;;;;;5039359;28;20804;-75
2022/12/18 03:44:36;;;;;;;16.27;11.80;;;;;;;;;;5046697;28;21060;-75
2022/12/18 03:47:28;;;;;;;17.50;11.87;;;;;;;;;;5043451;28;20471;-76
2022/12/18 03:50:23;;;;;;;14.87;11.30;;;;;;;;;;5045105;28;20986;-75
2022/12/18 03:53:22;;;;;;;13.30;11.00;;;;;;;;;;5026937;28;20482;-75
2022/12/18 03:56:17;;;;;;;15.30;11.53;;;;;;;;;;5021240;28;20534;-75
2022/12/18 03:59:07;;;;;;;14.53;12.20;;;;;;;;;;5025776;28;20476;-76
2022/12/18 04:01:59;;;;;;;12.83;10.93;;;;;;;;;;5014787;28;20478;-75
2022/12/18 04:04:52;;;;;;;12.17;10.40;;;;;;;;;;5025424;28;20551;-75
2022/12/18 04:07:49;;;;;;;17.80;10.93;;;;;;;;;;5022420;28;20550;-74
2022/12/18 04:10:41;;;;;;;13.30;10.80;;;;;;;;;;5008567;28;20448;-74
2022/12/18 04:13:35;;;;;;;15.63;12.10;;;;;;;;;;5026754;28;20514;-75
2022/12/18 04:16:30;;;;;;;17.37;12.10;;;;;;;;;;5017819;28;20473;-74
2022/12/18 04:19:20;;;;;;;14.07;11.07;;;;;;;;;;5017065;28;20496;-75
2022/12/18 04:22:13;;;;;;;15.17;11.13;;;;;;;;;;5016132;28;22202;-74
2022/12/18 04:25:05;;;;;;;16.53;11.57;;;;;;;;;;5018297;28;20469;-75
2022/12/18 04:27:58;;;;;;;13.80;10.50;;;;;;;;;;5016662;28;20487;-74
2022/12/18 04:30:56;;;;;;;13.67;10.77;;;;;;;;;;5017782;28;20470;-75
2022/12/18 04:33:51;;;;;;;14.93;10.33;;;;;;;;;;5020083;28;20492;-74
2022/12/18 04:36:44;;;;;;;13.53;11.70;;;;;;;;;;5018288;28;20467;-74
2022/12/18 04:39:37;;;;;;;16.30;11.50;;;;;;;;;;5020228;28;20843;-74
2022/12/18 04:42:26;;;;;;;15.70;11.13;;;;;;;;;;5025929;28;21557;-74
2022/12/18 04:45:14;;;;;;;17.47;11.80;;;;;;;;;;5027944;28;20463;-74
2022/12/18 04:48:06;;;;;;;17.20;11.43;;;;;;;;;;5042166;28;20457;-74
2022/12/18 04:50:55;;;;;;;15.83;11.30;;;;;;;;;;5025051;28;20959;-74
2022/12/18 04:53:45;;;;;;;15.27;11.00;;;;;;;;;;5041710;28;21012;-74
2022/12/18 04:56:35;;;;;;;13.83;10.90;;;;;;;;;;5043768;28;20448;-74
2022/12/18 04:59:24;;;;;;;15.73;11.60;;;;;;;;;;5042328;28;20472;-74
2022/12/18 05:02:14;;;;;;;15.40;10.53;;;;;;;;;;5027783;28;20470;-73
2022/12/18 05:05:10;;;;;;;14.10;11.47;;;;;;;;;;5012705;28;20445;-74
2022/12/18 05:07:59;;;;;;;14.00;10.70;;;;;;;;;;5027876;28;20483;-73
2022/12/18 05:10:50;;;;;;;16.63;11.60;;;;;;;;;;5024941;28;20450;-73
2022/12/18 05:13:41;;;;;;;16.33;11.40;;;;;;;;;;5022424;28;20491;-72
2022/12/18 05:16:33;;;;;;;14.40;11.70;;;;;;;;;;5021569;28;20456;-73
2022/12/18 05:19:24;;;;;;;15.40;11.03;;;;;;;;;;5026171;28;20470;-73
2022/12/18 05:22:14;;;;;;;13.33;10.60;;;;;;;;;;5022699;28;21073;-73
2022/12/18 05:25:04;;;;;;;16.17;11.63;;;;;;;;;;5023832;28;20827;-73
2022/12/18 05:28:03;;;;;;;16.97;10.87;;;;;;;;;;5021582;28;20465;-73
2022/12/18 05:30:52;;;;;;;14.33;10.37;;;;;;;;;;5029236;28;20985;-73
2022/12/18 05:33:42;;;;;;;14.80;11.00;;;;;;;;;;5024612;28;20500;-74
2022/12/18 05:36:36;;;;;;;18.60;12.20;;;;;;;;;;5018564;28;20458;-74
2022/12/18 05:39:29;;;;;;;14.10;11.13;;;;;;;;;;5019672;28;20458;-74
2022/12/18 05:42:18;;;;;;;17.43;11.10;;;;;;;;;;5022777;28;20479;-73
2022/12/18 05:45:25;;;;;;;15.43;10.90;;;;;;;;;;5020415;28;20451;-74
2022/12/18 05:48:21;;;;;;;13.47;10.63;;;;;;;;;;5022966;28;20509;-75
2022/12/18 05:51:17;;;;;;;14.93;10.93;;;;;;;;;;5031285;28;20452;-74
2022/12/18 05:54:12;;;;;;;13.93;10.77;;;;;;;;;;5024700;28;20479;-75
2022/12/18 05:57:07;;;;;;;16.10;11.40;;;;;;;;;;5024058;28;20450;-75
2022/12/18 06:00:03;;;;;;;13.87;10.37;;;;;;;;;;5025729;28;20862;-75
2022/12/18 06:02:55;;;;;;;14.40;10.43;;;;;;;;;;5013725;28;20486;-75
2022/12/18 06:05:48;;;;;;;17.80;11.23;;;;;;;;;;5021667;28;20487;-75
2022/12/18 06:08:47;;;;;;;14.83;10.73;;;;;;;;;;5010663;28;20492;-75
2022/12/18 06:11:45;;;;;;;16.13;11.50;;;;;;;;;;5019984;28;20478;-75
2022/12/18 06:14:41;;;;;;;14.00;10.33;;;;;;;;;;5019797;28;20466;-74
2022/12/18 06:17:31;;;;;;;14.03;10.80;;;;;;;;;;5016927;28;20866;-74
2022/12/18 06:20:21;;;;;;;14.60;11.47;;;;;;;;;;5019286;28;20817;-75
2022/12/18 06:23:22;;;;;;;13.87;11.13;;;;;;;;;;5019568;28;22184;-75
2022/12/18 06:26:15;;;;;;;16.37;11.83;;;;;;;;;;5015073;28;20469;-74
2022/12/18 06:29:06;;;;;;;14.90;11.57;;;;;;;;;;5040885;28;20488;-75
2022/12/18 06:32:00;;;;;;;17.73;11.17;;;;;;;;;;5033698;28;20487;-76
2022/12/18 06:34:49;;;;;;;15.60;11.90;;;;;;;;;;5028688;28;22144;-74
2022/12/18 06:37:39;;;;;;;15.80;11.70;;;;;;;;;;5020186;28;20486;-75
2022/12/18 06:40:41;;;;;;;13.90;10.77;;;;;;;;;;5019773;28;20977;-74
2022/12/18 06:43:32;;;;;;;13.63;10.57;;;;;;;;;;5020381;28;20485;-75
2022/12/18 06:46:23;;;;;;;14.63;11.10;;;;;;;;;;5023444;28;20641;-74
2022/12/18 06:49:19;;;;;;;16.93;10.97;;;;;;;;;;5022886;28;20458;-75
2022/12/18 06:52:10;;;;;;;15.43;11.17;;;;;;;;;;5017502;28;20476;-74
2022/12/18 06:55:04;;;;;;;15.50;10.37;;;;;;;;;;5023205;28;20471;-74
2022/12/18 06:57:56;;;;;;;16.13;11.50;;;;;;;;;;5042875;28;20502;-75
2022/12/18 07:00:49;;;;;;;17.47;12.30;;;;;;;;;;5047290;28;20440;-75
2022/12/18 07:03:38;;;;;;;17.23;11.83;;;;;;;;;;5029035;28;20482;-75
2022/12/18 07:06:31;;;;;;;17.40;13.03;;;;;;;;;;5023245;28;20493;-76
2022/12/18 07:09:20;;;;;;;16.27;11.73;;;;;;;;;;5021368;28;20449;-75
2022/12/18 07:12:09;;;;;;;17.40;12.23;;;;;;;;;;5023651;28;20852;-75
2022/12/18 07:15:04;;;;;;;15.30;11.10;;;;;;;;;;5024847;28;20548;-74
2022/12/18 07:17:56;;;;;;;16.60;11.57;;;;;;;;;;5014724;28;20488;-74
2022/12/18 07:20:46;;;;;;;14.10;11.07;;;;;;;;;;5018003;28;20453;-75
2022/12/18 07:23:41;;;;;;;16.57;10.80;;;;;;;;;;5028306;28;20487;-74
2022/12/18 07:26:34;;;;;;;17.47;11.57;;;;;;;;;;5030225;28;20627;-75
2022/12/18 07:29:33;;;;;;;16.07;12.03;;;;;;;;;;5023222;28;20454;-75
2022/12/18 07:32:26;;;;;;;17.13;11.23;;;;;;;;;;5020834;28;20487;-75
2022/12/18 07:35:20;;;;;;;16.30;11.70;;;;;;;;;;5030316;28;20817;-75
2022/12/18 07:38:32;;;;;;;15.90;12.10;;;;;;;;;;5022178;28;20847;-75
2022/12/18 07:41:29;;;;;;;14.80;11.90;;;;;;;;;;5023392;28;21032;-74
2022/12/18 07:44:23;;;;;;;16.07;11.23;;;;;;;;;;5025736;28;20558;-74
2022/12/18 07:47:18;;;;;;;18.53;11.67;;;;;;;;;;5027802;28;20487;-74
2022/12/18 07:50:15;;;;;;;17.93;11.53;;;;;;;;;;5026540;28;20849;-74
2022/12/18 07:53:08;;;;;;;16.07;12.73;;;;;;;;;;5025804;28;20476;-75
2022/12/18 07:55:59;;;;;;;18.20;12.33;;;;;;;;;;5027933;28;20445;-76
2022/12/18 07:59:15;;;;;;;15.30;11.97;;;;;;;;;;5028394;28;20544;-76
2022/12/18 08:02:05;;;;;;;16.70;11.90;;;;;;;;;;5011076;28;20494;-76
2022/12/18 08:04:54;;;;;;;16.53;11.60;;;;;;;;;;5011531;28;20505;-76
2022/12/18 08:07:43;;;;;;;14.80;11.37;;;;;;;;;;5024776;28;20488;-76
2022/12/18 08:10:31;;;;;;;16.50;12.20;;;;;;;;;;5017221;28;20595;-76
2022/12/18 08:13:20;;;;;;;14.40;11.87;;;;;;;;;;5009735;28;20482;-76
2022/12/18 08:16:10;;;;;;;18.00;11.67;;;;;;;;;;5015474;28;20454;-75
2022/12/18 08:18:59;;;;;;;19.60;13.90;;;;;;;;;;5015870;28;20482;-75
2022/12/18 08:21:47;;;;;;;16.13;12.37;;;;;;;;;;5004204;28;20482;-74
2022/12/18 08:24:36;;;;;;;16.47;12.30;;;;;;;;;;5011677;28;20480;-75
2022/12/18 08:27:24;;;;;;;18.60;13.00;;;;;;;;;;5011066;28;20483;-75
2022/12/18 08:30:17;;;;;;;16.60;13.17;;;;;;;;;;5027737;22;20508;-76
2022/12/18 08:33:08;;;;;;;21.10;13.80;;;;;;;;;;4977624;28;20486;-77
2022/12/18 08:35:56;;;;;;;18.90;13.40;;;;;;;;;;4985643;28;20951;-80
2022/12/18 08:38:45;;;;;;;18.33;12.77;;;;;;;;;;4985367;28;20454;-80
2022/12/18 08:41:38;;;;;;;17.20;12.90;;;;;;;;;;4979194;28;20473;-80
2022/12/18 08:44:38;;;;;;;20.67;14.50;;;;;;;;;;4965846;28;20465;-76
2022/12/18 08:47:27;;;;;;;19.10;12.53;;;;;;;;;;4960717;28;20486;-78
2022/12/18 08:50:17;;;;;;;18.83;13.57;;;;;;;;;;4959538;28;20483;-76
2022/12/18 08:53:06;;;;;;;19.33;12.30;;;;;;;;;;4952380;28;20639;-76
2022/12/18 08:55:55;;;;;;;22.40;13.27;;;;;;;;;;4972682;28;20561;-76
2022/12/18 08:58:44;;;;;;;20.10;13.43;;;;;;;;;;4975374;28;20446;-77
2022/12/18 09:01:32;;;;;;;17.60;12.90;;;;;;;;;;4961851;28;20489;-76
2022/12/18 09:04:23;;;;;;;19.53;12.93;;;;;;;;;;4964491;28;20517;-77
2022/12/18 09:07:16;;;;;;;16.70;12.07;;;;;;;;;;4975246;28;20866;-77
2022/12/18 09:10:05;;;;;;;13.90;11.23;;;;;;;;;;4988036;28;20542;-77
2022/12/18 09:12:53;;;;;;;21.20;13.57;;;;;;;;;;4982729;28;20531;-75
2022/12/18 09:15:42;;;;;;;17.80;13.00;;;;;;;;;;4967725;28;20468;-74
2022/12/18 09:18:34;;;;;;;15.87;11.97;;;;;;;;;;4970457;28;20465;-77
2022/12/18 09:21:22;;;;;;;18.00;12.53;;;;;;;;;;4967307;28;20489;-77
2022/12/18 09:24:15;;;;;;;16.30;11.87;;;;;;;;;;4976661;28;21544;-74
2022/12/18 09:27:03;;;;;;;14.87;11.63;;;;;;;;;;4989356;28;20607;-74
2022/12/18 09:29:52;;;;;;;17.07;12.00;;;;;;;;;;4987070;28;20478;-75
2022/12/18 09:32:43;;;;;;;19.20;11.77;;;;;;;;;;4976685;28;20503;-74
2022/12/18 09:35:31;;;;;;;17.00;11.63;;;;;;;;;;4976487;28;21097;-75
2022/12/18 09:38:22;;;;;;;19.13;12.90;;;;;;;;;;4968281;28;20465;-74
2022/12/18 09:41:20;;;;;;;20.80;12.70;;;;;;;;;;4971837;28;20996;-75
2022/12/18 09:44:14;;;;;;;18.90;12.67;;;;;;;;;;4959583;28;20545;-75
2022/12/18 09:47:06;;;;;;;18.90;13.00;;;;;;;;;;4977101;28;20469;-74
2022/12/18 09:49:56;;;;;;;18.97;13.20;;;;;;;;;;4979492;28;20519;-78
2022/12/18 09:52:47;;;;;;;16.30;12.67;;;;;;;;;;4985392;28;20480;-80
2022/12/18 09:55:37;;;;;;;15.07;12.57;;;;;;;;;;4989195;28;20476;-80
2022/12/18 09:58:32;;;;;;;17.87;12.73;;;;;;;;;;4977931;28;20495;-79
2022/12/18 10:01:23;;;;;;;16.80;12.60;;;;;;;;;;4971834;28;20983;-75
2022/12/18 10:04:23;;;;;;;17.27;12.20;;;;;;;;;;4974391;28;20466;-77
2022/12/18 10:07:18;;;;;;;17.17;13.50;;;;;;;;;;4980332;28;20456;-74
2022/12/18 10:10:10;;;;;;;22.93;13.30;;;;;;;;;;4954345;28;21001;-75
2022/12/18 10:13:04;;;;;;;16.37;12.00;;;;;;;;;;4938599;28;20489;-76
2022/12/18 10:15:59;;;;;;;17.40;13.20;;;;;;;;;;4950394;28;20453;-75
2022/12/18 10:18:58;;;;;;;18.23;13.90;;;;;;;;;;4972724;28;20484;-76
2022/12/18 10:21:52;;;;;;;20.17;14.00;;;;;;;;;;4967123;28;20492;-75
2022/12/18 10:24:44;;;;;;;18.23;13.37;;;;;;;;;;4971103;28;20482;-74
2022/12/18 10:27:32;;;;;;;20.00;13.37;;;;;;;;;;4970680;28;20468;-74
2022/12/18 10:30:23;;;;;;;17.10;12.30;;;;;;;;;;4965967;28;20575;-75
2022/12/18 10:33:15;;;;;;;16.47;13.23;;;;;;;;;;4962121;28;20980;-74
2022/12/18 10:36:04;;;;;;;18.40;13.13;;;;;;;;;;4976261;28;20465;-76
2022/12/18 10:39:15;;;;;;;17.03;11.73;;;;;;;;;;4978764;28;20481;-75
2022/12/18 10:42:12;;;;;;;14.07;11.10;;;;;;;;;;4961015;28;20571;-74
2022/12/18 10:45:03;;;;;;;14.97;11.77;;;;;;;;;;4953034;28;20516;-74
2022/12/18 10:47:51;;;;;;;17.87;12.23;;;;;;;;;;4954623;28;20929;-73
2022/12/18 10:50:41;;;;;;;15.43;11.67;;;;;;;;;;4955549;28;20570;-74
2022/12/18 10:53:56;;;;;;;16.27;11.60;;;;;;;;;;4972840;28;20482;-75
2022/12/18 10:56:45;;;;;;;13.30;11.57;;;;;;;;;;4984325;28;20599;-74
2022/12/18 10:59:50;;;;;;;17.20;11.87;;;;;;;;;;4996295;28;20464;-76
2022/12/18 11:02:40;;;;;;;15.97;12.10;;;;;;;;;;4979358;28;20550;-76
2022/12/18 11:05:30;;;;;;;15.43;10.90;;;;;;;;;;4964715;28;20473;-75
2022/12/18 11:08:23;;;;;;;14.77;11.10;;;;;;;;;;4965608;28;20488;-75
2022/12/18 11:11:17;;;;;;;15.30;11.70;;;;;;;;;;4961524;28;20581;-75
2022/12/18 11:14:07;;;;;;;14.23;11.70;;;;;;;;;;4959745;28;20497;-75
2022/12/18 11:16:57;;;;;;;17.37;12.03;;;;;;;;;;4976537;28;20543;-75
2022/12/18 11:20:06;;;;;;;16.87;13.20;;;;;;;;;;4982195;28;20480;-75
2022/12/18 11:22:57;;;;;;;16.17;13.53;;;;;;;;;;4978303;28;20490;-76
2022/12/18 11:25:53;;;;;;;13.13;10.67;;;;;;;;;;4984252;28;20466;-76
2022/12/18 11:28:43;;;;;;;14.83;11.67;;;;;;;;;;4990908;28;20510;-75
2022/12/18 11:31:32;;;;;;;20.47;12.30;;;;;;;;;;4996869;28;20509;-76
2022/12/18 11:34:24;;;;;;;16.70;12.90;;;;;;;;;;4993508;28;20519;-76
2022/12/18 11:37:19;;;;;;;15.90;12.37;;;;;;;;;;4994294;28;20456;-75
2022/12/18 11:40:09;;;;;;;15.47;10.93;;;;;;;;;;4991666;28;20492;-76
2022/12/18 11:43:03;;;;;;;16.03;12.73;;;;;;;;;;4993160;28;20493;-76
2022/12/18 11:45:54;;;;;;;16.30;12.40;;;;;;;;;;4987841;28;20489;-76
2022/12/18 11:48:46;;;;;;;17.77;13.20;;;;;;;;;;4987065;28;20470;-76
2022/12/18 11:51:36;;;;;;;18.70;12.60;;;;;;;;;;4987520;28;20473;-76
2022/12/18 11:54:25;;;;;;;18.10;12.50;;;;;;;;;;4990876;28;20467;-76
2022/12/18 11:57:18;;;;;;;15.27;12.60;;;;;;;;;;4979310;28;20458;-76
2022/12/18 12:00:12;;;;;;;17.37;13.20;;;;;;;;;;4985339;28;20493;-76
2022/12/18 12:03:22;;;;;;;17.43;12.37;;;;;;;;;;4989181;28;21027;-76
2022/12/18 12:06:15;;;;;;;17.50;12.93;;;;;;;;;;4994411;28;20475;-75
2022/12/18 12:09:08;;;;;;;16.73;13.20;;;;;;;;;;4987001;28;20477;-78
2022/12/18 12:12:03;;;;;;;21.13;13.20;;;;;;;;;;4992233;28;20477;-76
2022/12/18 12:14:56;;;;;;;17.67;13.60;;;;;;;;;;4988412;28;20464;-76
2022/12/18 12:17:51;;;;;;;19.20;12.87;;;;;;;;;;4987669;28;20466;-77
2022/12/18 12:20:46;;;;;;;18.97;12.30;;;;;;;;;;4985390;28;20472;-78
2022/12/18 12:23:39;;;;;;;16.67;12.53;;;;;;;;;;4978610;28;20857;-76
2022/12/18 12:26:31;;;;;;;20.73;13.00;;;;;;;;;;4992887;28;20458;-75
2022/12/18 12:29:25;;;;;;;21.33;13.10;;;;;;;;;;4993252;28;20476;-77
2022/12/18 12:32:21;;;;;;;16.50;13.13;;;;;;;;;;4984336;28;21008;-77
2022/12/18 12:35:16;;;;;;;18.93;13.23;;;;;;;;;;4985400;28;20508;-77
2022/12/18 12:38:11;;;;;;;15.57;11.70;;;;;;;;;;4990411;28;20468;-77
2022/12/18 12:41:01;;;;;;;16.80;12.00;;;;;;;;;;4984815;28;21074;-77
2022/12/18 12:43:50;;;;;;;16.97;12.07;;;;;;;;;;5011245;28;20490;-78
2022/12/18 12:46:41;;;;;;;17.07;12.40;;;;;;;;;;5002537;28;20474;-75
2022/12/18 12:49:32;;;;;;;16.70;11.63;;;;;;;;;;4998782;28;20481;-76
2022/12/18 12:52:33;;;;;;;19.50;12.20;;;;;;;;;;5003401;28;20619;-75
2022/12/18 12:55:23;;;;;;;15.83;11.40;;;;;;;;;;5007172;28;20539;-76
2022/12/18 12:58:15;;;;;;;16.43;11.70;;;;;;;;;;5000579;28;20793;-75
2022/12/18 13:01:10;;;;;;;15.00;12.23;;;;;;;;;;5010623;28;20481;-76
2022/12/18 13:04:10;;;;;;;15.90;11.97;;;;;;;;;;4997510;28;20534;-75
2022/12/18 13:07:02;;;;;;;17.10;11.50;;;;;;;;;;4994714;28;20519;-75
2022/12/18 13:10:10;;;;;;;16.07;11.83;;;;;;;;;;5001117;28;20626;-75
2022/12/18 13:13:05;;;;;;;15.67;11.33;;;;;;;;;;5013550;28;20475;-76
2022/12/18 13:16:06;;;;;;;16.53;12.20;;;;;;;;;;5007748;28;20456;-75
2022/12/18 13:18:56;;;;;;;14.90;11.90;;;;;;;;;;5010226;28;20949;-76
2022/12/18 13:21:54;;;;;;;17.83;12.27;;;;;;;;;;4998727;28;20489;-76
2022/12/18 13:24:45;;;;;;;16.97;11.07;;;;;;;;;;5003197;28;20804;-76
2022/12/18 13:27:58;;;;;;;16.90;11.97;;;;;;;;;;5011329;28;20455;-76
2022/12/18 13:30:49;;;;;;;18.23;11.83;;;;;;;;;;5011914;28;20584;-76
2022/12/18 13:33:44;;;;;;;15.83;11.63;;;;;;;;;;5009689;28;21058;-76
2022/12/18 13:36:56;;;;;;;18.70;12.50;;;;;;;;;;5006170;28;20986;-76
2022/12/18 13:39:44;;;;;;;20.60;12.90;;;;;;;;;;5008543;28;20995;-76
2022/12/18 13:45:47;;;;;;;18.67;11.80;;;;;;;;;;5014433;28;20957;-76
2022/12/18 13:48:43;;;;;;;18.03;12.00;;;;;;;;;;5011139;28;20555;-76
2022/12/18 13:51:35;;;;;;;21.13;13.10;;;;;;;;;;5010860;28;21007;-76
2022/12/18 13:54:29;;;;;;;18.40;12.23;;;;;;;;;;5004127;28;20553;-76
2022/12/18 13:57:28;;;;;;;17.60;12.37;;;;;;;;;;4997727;28;20454;-76
2022/12/18 14:00:28;;;;;;;18.70;12.93;;;;;;;;;;5006701;28;20478;-76
2022/12/18 14:03:19;;;;;;;22.30;12.67;;;;;;;;;;5015725;28;20485;-76
2022/12/18 14:06:14;;;;;;;19.30;12.40;;;;;;;;;;5017797;28;20494;-76
2022/12/18 14:09:06;;;;;;;18.87;12.80;;;;;;;;;;5017232;28;20454;-75
2022/12/18 14:12:56;;;;;;;20.70;12.93;;;;;;;;;;5014752;28;20486;-76
2022/12/18 14:15:14;;;;;;;17.93;12.40;;;;;;;;;;5014996;28;20462;-76
2022/12/18 14:18:05;;;;;;;25.13;13.10;;;;;;;;;;5007482;28;20465;-76
2022/12/18 14:20:56;;;;;;;18.83;12.53;;;;;;;;;;5010171;28;20508;-76
2022/12/18 14:23:46;;;;;;;20.00;11.70;;;;;;;;;;4994593;28;20484;-76
2022/12/18 14:26:35;;;;;;;22.00;13.50;;;;;;;;;;4995350;28;20926;-76
2022/12/18 14:29:26;;;;;;;20.70;13.70;;;;;;;;;;5019992;28;20465;-76
2022/12/18 14:32:18;;;;;;;21.03;13.87;;;;;;;;;;5009923;28;20491;-76
2022/12/18 14:35:14;;;;;;;19.90;13.10;;;;;;;;;;5003297;28;20452;-76
2022/12/18 14:38:27;;;;;;;19.53;12.67;;;;;;;;;;5012603;28;20453;-76
2022/12/18 14:41:20;;;;;;;21.00;13.57;;;;;;;;;;5002382;28;20476;-76
2022/12/18 14:44:13;;;;;;;21.17;13.30;;;;;;;;;;5011430;28;20517;-76
2022/12/18 14:47:05;;;;;;;20.73;13.63;;;;;;;;;;5013363;28;20463;-76
2022/12/18 14:49:54;;;;;;;22.43;14.30;;;;;;;;;;5000801;28;20485;-76
2022/12/18 14:52:42;;;;;;;25.30;14.30;;;;;;;;;;4993830;28;20489;-76
2022/12/18 14:55:33;;;;;;;27.07;15.03;;;;;;;;;;4997315;28;20461;-75
2022/12/18 14:58:25;;;;;;;25.50;16.37;;;;;;;;;;5024663;23;20712;-76
2022/12/18 15:01:19;;;;;;;23.83;14.63;;;;;;;;;;5032319;28;20499;-76
2022/12/18 15:04:24;;;;;;;21.27;14.20;;;;;;;;;;5023239;28;20460;-76
2022/12/18 15:07:15;;;;;;;24.87;15.40;;;;;;;;;;5031186;28;20469;-77
2022/12/18 15:10:11;;;;;;;24.37;14.93;;;;;;;;;;5008066;28;20556;-77
2022/12/18 15:13:08;;;;;;;24.63;15.60;;;;;;;;;;5009419;28;20674;-77
2022/12/18 15:16:03;;;;;;;26.60;14.90;;;;;;;;;;5009969;28;20669;-77
2022/12/18 15:18:52;;;;;;;20.70;14.90;;;;;;;;;;5013788;28;20896;-77
2022/12/18 15:21:44;;;;;;;23.53;15.00;;;;;;;;;;5009469;28;20517;-77
2022/12/18 15:24:33;;;;;;;24.00;14.57;;;;;;;;;;5007492;28;20467;-76
2022/12/18 15:27:27;;;;;;;24.13;15.10;;;;;;;;;;5011895;28;20456;-78
2022/12/18 15:30:22;;;;;;;23.17;14.90;;;;;;;;;;5001590;28;20523;-78
2022/12/18 15:33:26;;;;;;;24.00;13.93;;;;;;;;;;5010701;28;20449;-78
2022/12/18 15:36:22;;;;;;;24.30;13.40;;;;;;;;;;5006719;28;20467;-78
2022/12/18 15:39:14;;;;;;;22.07;14.23;;;;;;;;;;5016205;28;20641;-77
2022/12/18 15:45:13;;;;;;;26.10;14.60;;;;;;;;;;5020153;28;21154;-78
2022/12/18 15:48:02;;;;;;;24.27;14.50;;;;;;;;;;5026511;28;20476;-78
2022/12/18 15:50:53;;;;;;;24.83;16.27;;;;;;;;;;5024493;28;20486;-77
2022/12/18 15:53:47;;;;;;;23.93;13.83;;;;;;;;;;5026307;28;20597;-79
2022/12/18 15:59:46;;;;;;;25.23;13.70;;;;;;;;;;5006074;28;20514;-78
2022/12/18 16:02:36;;;;;;;25.13;14.40;;;;;;;;;;4997942;28;20441;-76
2022/12/18 16:05:26;;;;;;;27.27;15.03;;;;;;;;;;4997189;28;20459;-79
2022/12/18 16:08:19;;;;;;;26.43;15.23;;;;;;;;;;4997372;28;21113;-78
2022/12/18 16:11:08;;;;;;;23.40;14.10;;;;;;;;;;4992230;28;20484;-75
2022/12/18 16:13:58;;;;;;;26.53;15.20;;;;;;;;;;4996541;28;20463;-76
2022/12/18 16:16:49;;;;;;;22.77;14.00;;;;;;;;;;4998495;28;20463;-78
2022/12/18 16:19:40;;;;;;;23.03;14.77;;;;;;;;;;4993653;28;20496;-77
2022/12/18 16:22:30;;;;;;;25.30;13.63;;;;;;;;;;5001566;28;21399;-78
2022/12/18 16:25:21;;;;;;;25.23;14.23;;;;;;;;;;5006262;28;20979;-78
2022/12/18 16:28:10;;;;;;;22.90;15.20;;;;;;;;;;5026256;28;20582;-79
2022/12/18 16:30:58;;;;;;;20.90;13.67;;;;;;;;;;5018487;28;20486;-77
2022/12/18 16:33:47;;;;;;;24.87;14.93;;;;;;;;;;5027277;28;20455;-77
2022/12/18 16:36:46;;;;;;;24.90;15.13;;;;;;;;;;5030276;28;20459;-78
2022/12/18 16:39:34;;;;;;;23.57;15.10;;;;;;;;;;5020843;28;21021;-78
2022/12/18 16:42:24;;;;;;;22.47;14.70;;;;;;;;;;5026274;28;20546;-77
2022/12/18 16:45:14;;;;;;;26.27;14.87;;;;;;;;;;5019475;28;20458;-77
2022/12/18 16:48:02;;;;;;;24.00;15.67;;;;;;;;;;5024792;28;21138;-77
2022/12/18 16:50:51;;;;;;;27.77;14.67;;;;;;;;;;5028265;28;20481;-78
2022/12/18 16:53:39;;;;;;;25.20;14.50;;;;;;;;;;5028217;28;20527;-77
2022/12/18 16:56:29;;;;;;;27.77;15.53;;;;;;;;;;5013528;28;20471;-77
2022/12/18 16:59:21;;;;;;;22.63;14.33;;;;;;;;;;5024464;28;20491;-77
2022/12/18 17:02:16;;;;;;;26.40;15.40;;;;;;;;;;5009124;28;20483;-76
2022/12/18 17:05:10;;;;;;;26.20;15.50;;;;;;;;;;5024777;28;21112;-77
2022/12/18 17:08:00;;;;;;;24.40;14.10;;;;;;;;;;5017083;28;20464;-78
2022/12/18 17:10:49;;;;;;;23.53;14.30;;;;;;;;;;5007958;28;20610;-77
2022/12/18 17:13:37;;;;;;;22.23;13.93;;;;;;;;;;5008888;28;20455;-78